sensor_id;sensor_type;location;lat;lon;timestamp;pressure;altitude;pressure_sealevel;temperature;humidity
45040;BME280;30778;53.574;7.770;2024-03-08T00:00:17;102324.88;;;0.34;53.42
45040;BME280;30778;53.574;7.770;2024-03-08T00:02:45;102330.38;;;0.15;53.84
45040;BME280;30778;53.574;7.770;2024-03-08T00:05:12;102316.09;;;0.26;53.44
45040;BME280;30778;53.574;7.770;2024-03-08T00:07:39;102322.84;;;0.22;53.20
45040;BME280;30778;53.574;7.770;2024-03-08T00:10:08;102326.34;;;0.24;53.35
45040;BME280;30778;53.574;7.770;2024-03-08T00:12:42;102322.78;;;0.19;53.40
45040;BME280;30778;53.574;7.770;2024-03-08T00:15:12;102319.28;;;0.17;53.39
45040;BME280;30778;53.574;7.770;2024-03-08T00:17:43;102317.28;;;0.07;53.42
45040;BME280;30778;53.574;7.770;2024-03-08T00:20:09;102320.13;;;-0.16;54.16
45040;BME280;30778;53.574;7.770;2024-03-08T00:22:35;102318.03;;;0.03;53.62
45040;BME280;30778;53.574;7.770;2024-03-08T00:25:02;102318.28;;;0.12;53.10
45040;BME280;30778;53.574;7.770;2024-03-08T00:27:28;102315.81;;;0.15;53.12
45040;BME280;30778;53.574;7.770;2024-03-08T00:29:57;102313.38;;;-0.10;53.42
45040;BME280;30778;53.574;7.770;2024-03-08T00:32:22;102324.84;;;0.01;53.14
45040;BME280;30778;53.574;7.770;2024-03-08T00:34:53;102316.38;;;0.05;52.85
45040;BME280;30778;53.574;7.770;2024-03-08T00:37:20;102317.09;;;-0.01;53.10
45040;BME280;30778;53.574;7.770;2024-03-08T00:39:50;102313.75;;;0.02;52.55
45040;BME280;30778;53.574;7.770;2024-03-08T00:42:17;102319.63;;;-0.02;53.12
45040;BME280;30778;53.574;7.770;2024-03-08T00:44:43;102317.72;;;-0.09;53.03
45040;BME280;30778;53.574;7.770;2024-03-08T00:47:08;102313.25;;;-0.17;52.92
45040;BME280;30778;53.574;7.770;2024-03-08T00:49:34;102306.91;;;0.02;52.45
45040;BME280;30778;53.574;7.770;2024-03-08T00:51:59;102308.09;;;-0.17;52.94
45040;BME280;30778;53.574;7.770;2024-03-08T00:54:25;102306.94;;;-0.28;53.18
45040;BME280;30778;53.574;7.770;2024-03-08T00:56:51;102304.50;;;-0.23;53.02
45040;BME280;30778;53.574;7.770;2024-03-08T00:59:16;102300.41;;;-0.17;53.09
45040;BME280;30778;53.574;7.770;2024-03-08T01:01:43;102304.63;;;-0.19;52.61
45040;BME280;30778;53.574;7.770;2024-03-08T01:04:10;102304.09;;;-0.37;53.23
45040;BME280;30778;53.574;7.770;2024-03-08T01:06:38;102297.72;;;-0.20;52.69
45040;BME280;30778;53.574;7.770;2024-03-08T01:09:03;102290.75;;;-0.24;52.59
45040;BME280;30778;53.574;7.770;2024-03-08T01:11:33;102287.31;;;-0.26;52.67
45040;BME280;30778;53.574;7.770;2024-03-08T01:13:59;102282.31;;;-0.20;52.50
45040;BME280;30778;53.574;7.770;2024-03-08T01:16:24;102282.53;;;-0.42;53.24
45040;BME280;30778;53.574;7.770;2024-03-08T01:18:50;102271.66;;;-0.33;52.92
45040;BME280;30778;53.574;7.770;2024-03-08T01:21:15;102264.31;;;-0.51;53.31
45040;BME280;30778;53.574;7.770;2024-03-08T01:23:41;102268.59;;;-0.20;52.42
45040;BME280;30778;53.574;7.770;2024-03-08T01:26:06;102266.88;;;-0.20;52.08
45040;BME280;30778;53.574;7.770;2024-03-08T01:28:32;102262.16;;;-0.36;52.64
45040;BME280;30778;53.574;7.770;2024-03-08T01:30:59;102257.09;;;-0.33;53.03
45040;BME280;30778;53.574;7.770;2024-03-08T01:33:26;102253.50;;;-0.40;53.09
45040;BME280;30778;53.574;7.770;2024-03-08T01:35:55;102254.47;;;-0.36;52.70
45040;BME280;30778;53.574;7.770;2024-03-08T01:38:21;102243.28;;;-0.38;52.70
45040;BME280;30778;53.574;7.770;2024-03-08T01:40:47;102240.31;;;-0.20;52.39
45040;BME280;30778;53.574;7.770;2024-03-08T01:43:25;102234.09;;;-0.30;52.53
45040;BME280;30778;53.574;7.770;2024-03-08T01:45:52;102232.31;;;-0.31;52.43
45040;BME280;30778;53.574;7.770;2024-03-08T01:48:18;102227.53;;;-0.19;51.97
45040;BME280;30778;53.574;7.770;2024-03-08T01:50:47;102230.25;;;-0.44;52.80
45040;BME280;30778;53.574;7.770;2024-03-08T01:53:13;102215.88;;;-0.38;52.57
45040;BME280;30778;53.574;7.770;2024-03-08T01:55:41;102225.09;;;-0.44;52.71
45040;BME280;30778;53.574;7.770;2024-03-08T01:58:09;102216.97;;;-0.29;52.07
45040;BME280;30778;53.574;7.770;2024-03-08T02:00:36;102217.56;;;-0.38;52.47
45040;BME280;30778;53.574;7.770;2024-03-08T02:03:05;102212.25;;;-0.44;52.69
45040;BME280;30778;53.574;7.770;2024-03-08T02:05:31;102211.03;;;-0.27;52.16
45040;BME280;30778;53.574;7.770;2024-03-08T02:07:57;102209.81;;;-0.41;52.18
45040;BME280;30778;53.574;7.770;2024-03-08T02:10:22;102211.47;;;-0.43;52.51
45040;BME280;30778;53.574;7.770;2024-03-08T02:12:48;102218.00;;;-0.54;52.70
45040;BME280;30778;53.574;7.770;2024-03-08T02:15:14;102209.94;;;-0.37;52.50
45040;BME280;30778;53.574;7.770;2024-03-08T02:17:42;102202.53;;;-0.56;52.56
45040;BME280;30778;53.574;7.770;2024-03-08T02:20:08;102199.22;;;-0.52;52.58
45040;BME280;30778;53.574;7.770;2024-03-08T02:22:35;102200.47;;;-0.38;51.93
45040;BME280;30778;53.574;7.770;2024-03-08T02:25:02;102198.44;;;-0.49;52.34
45040;BME280;30778;53.574;7.770;2024-03-08T02:27:28;102188.91;;;-0.53;52.29
45040;BME280;30778;53.574;7.770;2024-03-08T02:29:58;102188.66;;;-0.63;52.66
45040;BME280;30778;53.574;7.770;2024-03-08T02:32:24;102198.06;;;-0.63;52.87
45040;BME280;30778;53.574;7.770;2024-03-08T02:34:50;102197.44;;;-0.54;52.40
45040;BME280;30778;53.574;7.770;2024-03-08T02:37:16;102191.78;;;-0.73;52.86
45040;BME280;30778;53.574;7.770;2024-03-08T02:39:41;102189.31;;;-0.70;52.78
45040;BME280;30778;53.574;7.770;2024-03-08T02:42:07;102185.09;;;-0.68;52.76
45040;BME280;30778;53.574;7.770;2024-03-08T02:44:33;102185.97;;;-0.67;52.63
45040;BME280;30778;53.574;7.770;2024-03-08T02:47:01;102181.00;;;-0.61;52.50
45040;BME280;30778;53.574;7.770;2024-03-08T02:49:27;102181.03;;;-0.60;52.53
45040;BME280;30778;53.574;7.770;2024-03-08T02:51:53;102175.06;;;-0.59;52.22
45040;BME280;30778;53.574;7.770;2024-03-08T02:54:19;102173.69;;;-0.78;53.02
45040;BME280;30778;53.574;7.770;2024-03-08T02:56:45;102175.81;;;-0.63;52.58
45040;BME280;30778;53.574;7.770;2024-03-08T02:59:15;102180.69;;;-0.72;52.85
45040;BME280;30778;53.574;7.770;2024-03-08T03:01:43;102179.53;;;-0.83;53.17
45040;BME280;30778;53.574;7.770;2024-03-08T03:04:09;102172.00;;;-0.77;52.83
45040;BME280;30778;53.574;7.770;2024-03-08T03:06:34;102167.28;;;-0.62;52.34
45040;BME280;30778;53.574;7.770;2024-03-08T03:09:01;102168.84;;;-0.67;52.78
45040;BME280;30778;53.574;7.770;2024-03-08T03:11:27;102167.81;;;-0.73;52.78
45040;BME280;30778;53.574;7.770;2024-03-08T03:13:53;102169.50;;;-0.74;52.45
45040;BME280;30778;53.574;7.770;2024-03-08T03:16:19;102159.91;;;-0.81;52.84
45040;BME280;30778;53.574;7.770;2024-03-08T03:18:48;102161.38;;;-0.89;53.25
45040;BME280;30778;53.574;7.770;2024-03-08T03:21:16;102159.84;;;-0.83;52.84
45040;BME280;30778;53.574;7.770;2024-03-08T03:23:42;102158.75;;;-0.92;53.53
45040;BME280;30778;53.574;7.770;2024-03-08T03:26:11;102160.66;;;-0.85;53.30
45040;BME280;30778;53.574;7.770;2024-03-08T03:28:37;102157.25;;;-0.84;53.46
45040;BME280;30778;53.574;7.770;2024-03-08T03:31:08;102160.91;;;-0.76;53.79
45040;BME280;30778;53.574;7.770;2024-03-08T03:33:35;102160.72;;;-0.82;54.04
45040;BME280;30778;53.574;7.770;2024-03-08T03:36:03;102162.38;;;-0.84;53.79
45040;BME280;30778;53.574;7.770;2024-03-08T03:38:30;102158.88;;;-0.86;54.02
45040;BME280;30778;53.574;7.770;2024-03-08T03:40:55;102159.81;;;-0.84;54.11
45040;BME280;30778;53.574;7.770;2024-03-08T03:43:25;102159.28;;;-1.03;54.58
45040;BME280;30778;53.574;7.770;2024-03-08T03:45:51;102162.16;;;-0.92;54.13
45040;BME280;30778;53.574;7.770;2024-03-08T03:48:16;102159.56;;;-0.93;54.37
45040;BME280;30778;53.574;7.770;2024-03-08T03:50:42;102154.78;;;-1.10;54.56
45040;BME280;30778;53.574;7.770;2024-03-08T03:53:07;102158.09;;;-1.14;55.15
45040;BME280;30778;53.574;7.770;2024-03-08T03:55:33;102156.31;;;-1.17;54.83
45040;BME280;30778;53.574;7.770;2024-03-08T03:57:59;102161.38;;;-1.18;55.17
45040;BME280;30778;53.574;7.770;2024-03-08T04:00:27;102161.56;;;-1.12;54.55
45040;BME280;30778;53.574;7.770;2024-03-08T04:02:52;102162.28;;;-1.16;54.93
45040;BME280;30778;53.574;7.770;2024-03-08T04:05:20;102156.25;;;-1.18;54.97
45040;BME280;30778;53.574;7.770;2024-03-08T04:07:46;102158.53;;;-1.27;55.29
45040;BME280;30778;53.574;7.770;2024-03-08T04:10:12;102159.72;;;-1.45;55.82
45040;BME280;30778;53.574;7.770;2024-03-08T04:12:38;102152.81;;;-1.47;55.71
45040;BME280;30778;53.574;7.770;2024-03-08T04:15:04;102152.16;;;-1.42;55.92
45040;BME280;30778;53.574;7.770;2024-03-08T04:17:33;102153.19;;;-1.35;55.36
45040;BME280;30778;53.574;7.770;2024-03-08T04:20:03;102151.25;;;-1.42;55.76
45040;BME280;30778;53.574;7.770;2024-03-08T04:22:37;102145.38;;;-1.40;55.51
45040;BME280;30778;53.574;7.770;2024-03-08T04:25:05;102143.56;;;-1.42;55.29
45040;BME280;30778;53.574;7.770;2024-03-08T04:27:32;102143.16;;;-1.56;55.71
45040;BME280;30778;53.574;7.770;2024-03-08T04:29:58;102138.00;;;-1.56;55.81
45040;BME280;30778;53.574;7.770;2024-03-08T04:32:24;102132.22;;;-1.50;55.38
45040;BME280;30778;53.574;7.770;2024-03-08T04:34:50;102136.22;;;-1.59;55.73
45040;BME280;30778;53.574;7.770;2024-03-08T04:37:15;102132.66;;;-1.64;55.63
45040;BME280;30778;53.574;7.770;2024-03-08T04:39:46;102131.63;;;-1.69;55.93
45040;BME280;30778;53.574;7.770;2024-03-08T04:42:12;102135.91;;;-1.69;56.44
45040;BME280;30778;53.574;7.770;2024-03-08T04:44:39;102130.97;;;-1.63;56.15
45040;BME280;30778;53.574;7.770;2024-03-08T04:47:05;102134.25;;;-1.67;56.32
45040;BME280;30778;53.574;7.770;2024-03-08T04:49:33;102134.38;;;-1.64;55.96
45040;BME280;30778;53.574;7.770;2024-03-08T04:52:02;102127.56;;;-1.62;55.77
45040;BME280;30778;53.574;7.770;2024-03-08T04:54:29;102123.34;;;-1.60;55.86
45040;BME280;30778;53.574;7.770;2024-03-08T04:56:54;102112.88;;;-1.68;56.00
45040;BME280;30778;53.574;7.770;2024-03-08T04:59:20;102111.47;;;-1.58;55.79
45040;BME280;30778;53.574;7.770;2024-03-08T05:01:45;102111.09;;;-1.70;56.28
45040;BME280;30778;53.574;7.770;2024-03-08T05:04:11;102109.41;;;-1.70;56.23
45040;BME280;30778;53.574;7.770;2024-03-08T05:06:36;102107.81;;;-1.66;55.94
45040;BME280;30778;53.574;7.770;2024-03-08T05:09:02;102115.59;;;-1.63;56.01
45040;BME280;30778;53.574;7.770;2024-03-08T05:11:47;102111.81;;;-1.74;56.16
45040;BME280;30778;53.574;7.770;2024-03-08T05:14:14;102115.25;;;-1.74;55.75
45040;BME280;30778;53.574;7.770;2024-03-08T05:16:47;102105.13;;;-1.69;55.81
45040;BME280;30778;53.574;7.770;2024-03-08T05:19:16;102113.75;;;-1.67;55.66
45040;BME280;30778;53.574;7.770;2024-03-08T05:21:48;102109.31;;;-1.73;55.58
45040;BME280;30778;53.574;7.770;2024-03-08T05:24:14;102105.06;;;-1.72;55.78
45040;BME280;30778;53.574;7.770;2024-03-08T05:26:41;102109.19;;;-1.76;55.71
45040;BME280;30778;53.574;7.770;2024-03-08T05:29:07;102104.72;;;-1.83;55.76
45040;BME280;30778;53.574;7.770;2024-03-08T05:31:48;102101.47;;;-1.77;55.54
45040;BME280;30778;53.574;7.770;2024-03-08T05:34:14;102107.84;;;-1.92;55.89
45040;BME280;30778;53.574;7.770;2024-03-08T05:36:41;102097.28;;;-1.75;55.50
45040;BME280;30778;53.574;7.770;2024-03-08T05:39:11;102098.09;;;-1.76;55.38
45040;BME280;30778;53.574;7.770;2024-03-08T05:41:38;102098.88;;;-1.79;55.54
45040;BME280;30778;53.574;7.770;2024-03-08T05:44:04;102098.94;;;-1.77;55.18
45040;BME280;30778;53.574;7.770;2024-03-08T05:46:30;102097.72;;;-1.89;55.83
45040;BME280;30778;53.574;7.770;2024-03-08T05:48:55;102097.59;;;-1.92;56.00
45040;BME280;30778;53.574;7.770;2024-03-08T05:51:23;102092.16;;;-1.75;55.25
45040;BME280;30778;53.574;7.770;2024-03-08T05:53:48;102092.97;;;-1.76;55.18
45040;BME280;30778;53.574;7.770;2024-03-08T05:56:14;102084.16;;;-1.85;55.64
45040;BME280;30778;53.574;7.770;2024-03-08T05:58:39;102092.81;;;-1.81;55.38
45040;BME280;30778;53.574;7.770;2024-03-08T06:01:05;102078.94;;;-1.88;55.18
45040;BME280;30778;53.574;7.770;2024-03-08T06:03:34;102085.00;;;-1.86;55.32
45040;BME280;30778;53.574;7.770;2024-03-08T06:05:59;102088.47;;;-1.84;55.46
45040;BME280;30778;53.574;7.770;2024-03-08T06:08:24;102079.94;;;-1.83;55.17
45040;BME280;30778;53.574;7.770;2024-03-08T06:10:55;102077.56;;;-1.76;55.09
45040;BME280;30778;53.574;7.770;2024-03-08T06:13:21;102076.91;;;-1.71;55.05
45040;BME280;30778;53.574;7.770;2024-03-08T06:15:47;102081.25;;;-1.68;55.26
45040;BME280;30778;53.574;7.770;2024-03-08T06:18:12;102071.88;;;-1.68;54.90
45040;BME280;30778;53.574;7.770;2024-03-08T06:20:38;102072.66;;;-1.70;55.25
45040;BME280;30778;53.574;7.770;2024-03-08T06:23:03;102071.34;;;-1.56;54.88
45040;BME280;30778;53.574;7.770;2024-03-08T06:25:29;102070.28;;;-1.64;54.90
45040;BME280;30778;53.574;7.770;2024-03-08T06:27:54;102071.16;;;-1.62;55.19
45040;BME280;30778;53.574;7.770;2024-03-08T06:30:20;102076.94;;;-1.69;55.10
45040;BME280;30778;53.574;7.770;2024-03-08T06:32:46;102074.22;;;-1.45;54.59
45040;BME280;30778;53.574;7.770;2024-03-08T06:35:12;102075.41;;;-1.34;54.51
45040;BME280;30778;53.574;7.770;2024-03-08T06:37:37;102069.41;;;-1.34;54.30
45040;BME280;30778;53.574;7.770;2024-03-08T06:40:04;102066.91;;;-1.33;53.97
45040;BME280;30778;53.574;7.770;2024-03-08T06:42:30;102062.91;;;-1.23;53.71
45040;BME280;30778;53.574;7.770;2024-03-08T06:45:01;102067.97;;;-1.25;53.69
45040;BME280;30778;53.574;7.770;2024-03-08T06:47:33;102070.59;;;-1.23;53.79
45040;BME280;30778;53.574;7.770;2024-03-08T06:49:58;102064.34;;;-1.03;53.00
45040;BME280;30778;53.574;7.770;2024-03-08T06:52:24;102064.50;;;-0.97;53.51
45040;BME280;30778;53.574;7.770;2024-03-08T06:54:49;102062.88;;;-0.61;52.77
45040;BME280;30778;53.574;7.770;2024-03-08T06:57:16;102070.84;;;0.22;50.96
45040;BME280;30778;53.574;7.770;2024-03-08T06:59:42;102074.28;;;1.06;48.83
45040;BME280;30778;53.574;7.770;2024-03-08T07:02:07;102068.09;;;1.96;46.90
45040;BME280;30778;53.574;7.770;2024-03-08T07:04:34;102062.81;;;2.49;43.60
45040;BME280;30778;53.574;7.770;2024-03-08T07:07:06;102060.09;;;3.14;43.58
45040;BME280;30778;53.574;7.770;2024-03-08T07:09:35;102063.06;;;3.50;41.66
45040;BME280;30778;53.574;7.770;2024-03-08T07:12:01;102068.19;;;3.45;42.23
45040;BME280;30778;53.574;7.770;2024-03-08T07:14:27;102056.84;;;3.31;41.71
45040;BME280;30778;53.574;7.770;2024-03-08T07:16:52;102062.22;;;3.52;41.39
45040;BME280;30778;53.574;7.770;2024-03-08T07:19:18;102064.22;;;3.93;40.41
45040;BME280;30778;53.574;7.770;2024-03-08T07:21:44;102061.81;;;4.18;39.51
45040;BME280;30778;53.574;7.770;2024-03-08T07:24:10;102060.28;;;4.57;39.49
45040;BME280;30778;53.574;7.770;2024-03-08T07:26:44;102057.69;;;4.57;39.56
45040;BME280;30778;53.574;7.770;2024-03-08T07:29:15;102067.38;;;5.09;38.96
45040;BME280;30778;53.574;7.770;2024-03-08T07:31:40;102066.53;;;5.43;37.17
45040;BME280;30778;53.574;7.770;2024-03-08T07:34:24;102057.03;;;5.82;36.17
45040;BME280;30778;53.574;7.770;2024-03-08T07:36:50;102057.91;;;5.86;36.67
45040;BME280;30778;53.574;7.770;2024-03-08T07:39:16;102058.69;;;6.19;35.92
45040;BME280;30778;53.574;7.770;2024-03-08T07:41:42;102052.63;;;6.32;34.93
45040;BME280;30778;53.574;7.770;2024-03-08T07:44:08;102057.91;;;5.80;36.04
45040;BME280;30778;53.574;7.770;2024-03-08T07:46:34;102055.31;;;5.48;37.38
45040;BME280;30778;53.574;7.770;2024-03-08T07:49:00;102063.09;;;5.52;37.23
45040;BME280;30778;53.574;7.770;2024-03-08T07:51:26;102059.56;;;6.18;36.63
45040;BME280;30778;53.574;7.770;2024-03-08T07:53:51;102062.91;;;6.57;36.76
45040;BME280;30778;53.574;7.770;2024-03-08T07:56:17;102048.03;;;6.88;34.70
45040;BME280;30778;53.574;7.770;2024-03-08T07:58:44;102054.91;;;6.97;35.02
45040;BME280;30778;53.574;7.770;2024-03-08T08:01:19;102041.78;;;7.18;34.37
45040;BME280;30778;53.574;7.770;2024-03-08T08:03:45;102040.31;;;6.74;34.09
45040;BME280;30778;53.574;7.770;2024-03-08T08:06:11;102036.81;;;6.84;34.16
45040;BME280;30778;53.574;7.770;2024-03-08T08:08:44;102038.59;;;6.75;35.00
45040;BME280;30778;53.574;7.770;2024-03-08T08:11:10;102043.81;;;6.73;33.85
45040;BME280;30778;53.574;7.770;2024-03-08T08:13:41;102035.31;;;6.25;34.26
45040;BME280;30778;53.574;7.770;2024-03-08T08:16:09;102036.25;;;5.95;35.00
45040;BME280;30778;53.574;7.770;2024-03-08T08:18:35;102032.78;;;5.88;35.07
45040;BME280;30778;53.574;7.770;2024-03-08T08:21:02;102019.63;;;6.53;34.65
45040;BME280;30778;53.574;7.770;2024-03-08T08:23:28;102019.69;;;6.39;34.64
45040;BME280;30778;53.574;7.770;2024-03-08T08:25:54;102018.00;;;6.36;34.30
45040;BME280;30778;53.574;7.770;2024-03-08T08:28:20;102021.47;;;6.18;33.81
45040;BME280;30778;53.574;7.770;2024-03-08T08:30:46;102022.47;;;5.73;34.62
45040;BME280;30778;53.574;7.770;2024-03-08T08:33:11;102015.53;;;5.88;34.84
45040;BME280;30778;53.574;7.770;2024-03-08T08:35:37;102017.28;;;5.45;35.29
45040;BME280;30778;53.574;7.770;2024-03-08T08:38:06;102009.50;;;5.54;35.26
45040;BME280;30778;53.574;7.770;2024-03-08T08:40:35;102011.97;;;4.67;36.13
45040;BME280;30778;53.574;7.770;2024-03-08T08:43:02;102005.97;;;4.77;36.32
45040;BME280;30778;53.574;7.770;2024-03-08T08:45:30;102000.00;;;5.12;36.47
45040;BME280;30778;53.574;7.770;2024-03-08T08:47:56;102003.47;;;5.17;36.09
45040;BME280;30778;53.574;7.770;2024-03-08T08:50:22;101999.06;;;4.77;36.52
45040;BME280;30778;53.574;7.770;2024-03-08T08:52:48;101993.94;;;4.93;36.57
45040;BME280;30778;53.574;7.770;2024-03-08T08:55:14;101992.84;;;4.28;37.32
45040;BME280;30778;53.574;7.770;2024-03-08T08:57:40;101986.59;;;3.84;37.83
45040;BME280;30778;53.574;7.770;2024-03-08T09:00:07;101988.19;;;3.64;38.46
45040;BME280;30778;53.574;7.770;2024-03-08T09:02:36;101985.78;;;3.97;38.04
45040;BME280;30778;53.574;7.770;2024-03-08T09:05:03;101974.31;;;3.55;39.15
45040;BME280;30778;53.574;7.770;2024-03-08T09:07:29;101978.13;;;4.13;37.91
45040;BME280;30778;53.574;7.770;2024-03-08T09:09:54;101964.19;;;3.86;38.45
45040;BME280;30778;53.574;7.770;2024-03-08T09:12:23;101983.34;;;4.24;38.16
45040;BME280;30778;53.574;7.770;2024-03-08T09:14:49;101975.53;;;4.14;38.44
45040;BME280;30778;53.574;7.770;2024-03-08T09:17:16;101970.16;;;3.74;38.25
45040;BME280;30778;53.574;7.770;2024-03-08T09:19:46;101979.56;;;3.65;38.90
45040;BME280;30778;53.574;7.770;2024-03-08T09:22:13;101962.59;;;4.10;38.23
45040;BME280;30778;53.574;7.770;2024-03-08T09:24:39;101969.47;;;4.11;37.53
45040;BME280;30778;53.574;7.770;2024-03-08T09:27:05;101966.56;;;3.55;39.21
45040;BME280;30778;53.574;7.770;2024-03-08T09:29:30;101957.06;;;3.50;39.16
45040;BME280;30778;53.574;7.770;2024-03-08T09:31:56;101956.59;;;4.21;38.16
45040;BME280;30778;53.574;7.770;2024-03-08T09:34:22;101957.50;;;4.40;38.02
45040;BME280;30778;53.574;7.770;2024-03-08T09:36:47;101948.72;;;3.97;38.49
45040;BME280;30778;53.574;7.770;2024-03-08T09:39:13;101954.78;;;4.02;38.74
45040;BME280;30778;53.574;7.770;2024-03-08T09:41:49;101945.38;;;4.27;38.21
45040;BME280;30778;53.574;7.770;2024-03-08T09:44:15;101941.81;;;3.97;38.80
45040;BME280;30778;53.574;7.770;2024-03-08T09:46:42;101927.31;;;4.47;38.52
45040;BME280;30778;53.574;7.770;2024-03-08T09:49:08;101922.09;;;4.16;38.08
45040;BME280;30778;53.574;7.770;2024-03-08T09:51:34;101907.53;;;4.81;37.81
45040;BME280;30778;53.574;7.770;2024-03-08T09:54:02;101914.38;;;4.49;36.81
45040;BME280;30778;53.574;7.770;2024-03-08T09:56:32;101911.59;;;3.81;38.74
45040;BME280;30778;53.574;7.770;2024-03-08T09:58:58;101924.59;;;3.99;38.47
45040;BME280;30778;53.574;7.770;2024-03-08T10:01:42;101904.63;;;3.72;39.18
45040;BME280;30778;53.574;7.770;2024-03-08T10:04:07;101907.44;;;4.29;38.85
45040;BME280;30778;53.574;7.770;2024-03-08T10:06:35;101897.19;;;4.81;37.16
45040;BME280;30778;53.574;7.770;2024-03-08T10:09:02;101894.56;;;4.83;37.83
45040;BME280;30778;53.574;7.770;2024-03-08T10:11:27;101904.06;;;4.87;37.03
45040;BME280;30778;53.574;7.770;2024-03-08T10:13:54;101889.34;;;5.48;36.36
45040;BME280;30778;53.574;7.770;2024-03-08T10:16:19;101889.28;;;5.80;35.55
45040;BME280;30778;53.574;7.770;2024-03-08T10:18:46;101883.28;;;5.62;35.42
45040;BME280;30778;53.574;7.770;2024-03-08T10:21:12;101891.97;;;5.28;35.83
45040;BME280;30778;53.574;7.770;2024-03-08T10:23:39;101874.59;;;5.73;36.17
45040;BME280;30778;53.574;7.770;2024-03-08T10:26:17;101878.13;;;5.41;35.61
45040;BME280;30778;53.574;7.770;2024-03-08T10:28:48;101882.47;;;5.36;35.83
45040;BME280;30778;53.574;7.770;2024-03-08T10:31:14;101883.38;;;5.09;36.56
45040;BME280;30778;53.574;7.770;2024-03-08T10:33:40;101873.88;;;5.06;36.97
45040;BME280;30778;53.574;7.770;2024-03-08T10:36:10;101869.34;;;5.83;35.65
45040;BME280;30778;53.574;7.770;2024-03-08T10:38:38;101853.72;;;5.99;35.37
45040;BME280;30778;53.574;7.770;2024-03-08T10:41:08;101865.19;;;5.32;35.79
45040;BME280;30778;53.574;7.770;2024-03-08T10:49:17;101852.25;;;5.33;36.06
45040;BME280;30778;53.574;7.770;2024-03-08T10:51:44;101846.97;;;5.59;36.20
45040;BME280;30778;53.574;7.770;2024-03-08T10:54:10;101836.69;;;5.35;35.57
45040;BME280;30778;53.574;7.770;2024-03-08T10:56:37;101847.91;;;5.38;35.70
45040;BME280;30778;53.574;7.770;2024-03-08T10:59:03;101847.13;;;4.95;36.86
45040;BME280;30778;53.574;7.770;2024-03-08T11:01:30;101846.25;;;4.93;36.63
45040;BME280;30778;53.574;7.770;2024-03-08T11:03:56;101841.91;;;5.19;36.53
45040;BME280;30778;53.574;7.770;2024-03-08T11:09:08;101834.16;;;4.79;37.29
45040;BME280;30778;53.574;7.770;2024-03-08T11:11:38;101821.00;;;5.69;36.44
45040;BME280;30778;53.574;7.770;2024-03-08T11:17:39;101815.00;;;5.57;36.16
45040;BME280;30778;53.574;7.770;2024-03-08T11:20:14;101818.16;;;6.15;34.76
45040;BME280;30778;53.574;7.770;2024-03-08T11:23:00;101807.22;;;5.57;35.59
45040;BME280;30778;53.574;7.770;2024-03-08T11:25:40;101800.31;;;5.50;35.99
45040;BME280;30778;53.574;7.770;2024-03-08T11:28:19;101793.03;;;6.17;35.59
45040;BME280;30778;53.574;7.770;2024-03-08T11:33:31;101781.22;;;5.63;35.14
45040;BME280;30778;53.574;7.770;2024-03-08T11:36:32;101776.13;;;5.51;36.17
45040;BME280;30778;53.574;7.770;2024-03-08T11:39:01;101766.59;;;5.55;35.50
45040;BME280;30778;53.574;7.770;2024-03-08T11:41:34;101773.34;;;5.86;35.48
45040;BME280;30778;53.574;7.770;2024-03-08T11:44:04;101775.16;;;5.72;36.14
45040;BME280;30778;53.574;7.770;2024-03-08T11:46:30;101755.69;;;6.39;34.61
45040;BME280;30778;53.574;7.770;2024-03-08T11:48:56;101760.09;;;6.31;34.19
45040;BME280;30778;53.574;7.770;2024-03-08T11:51:22;101761.00;;;6.22;34.79
45040;BME280;30778;53.574;7.770;2024-03-08T11:53:49;101760.75;;;6.56;33.99
45040;BME280;30778;53.574;7.770;2024-03-08T11:56:16;101759.25;;;6.29;34.01
45040;BME280;30778;53.574;7.770;2024-03-08T11:58:41;101752.34;;;6.20;34.78
45040;BME280;30778;53.574;7.770;2024-03-08T12:01:08;101759.91;;;6.56;33.85
45040;BME280;30778;53.574;7.770;2024-03-08T12:03:40;101746.00;;;6.58;34.27
45040;BME280;30778;53.574;7.770;2024-03-08T12:06:08;101751.13;;;6.66;33.11
45040;BME280;30778;53.574;7.770;2024-03-08T12:08:37;101741.53;;;6.76;33.70
45040;BME280;30778;53.574;7.770;2024-03-08T12:11:07;101735.84;;;6.27;34.39
45040;BME280;30778;53.574;7.770;2024-03-08T12:13:34;101737.69;;;6.15;34.88
45040;BME280;30778;53.574;7.770;2024-03-08T12:16:03;101733.25;;;6.34;33.83
45040;BME280;30778;53.574;7.770;2024-03-08T12:18:33;101741.81;;;6.43;34.17
45040;BME280;30778;53.574;7.770;2024-03-08T12:21:08;101728.41;;;6.86;33.81
45040;BME280;30778;53.574;7.770;2024-03-08T12:23:36;101719.41;;;7.15;33.08
45040;BME280;30778;53.574;7.770;2024-03-08T12:26:23;101723.63;;;6.46;32.57
45040;BME280;30778;53.574;7.770;2024-03-08T12:28:49;101725.00;;;5.73;33.82
45040;BME280;30778;53.574;7.770;2024-03-08T12:31:16;101718.63;;;6.19;34.39
45040;BME280;30778;53.574;7.770;2024-03-08T12:36:20;101703.50;;;5.51;34.50
45040;BME280;30778;53.574;7.770;2024-03-08T12:38:47;101703.31;;;5.85;34.84
45040;BME280;30778;53.574;7.770;2024-03-08T12:41:16;101690.22;;;5.99;34.08
45040;BME280;30778;53.574;7.770;2024-03-08T12:43:43;101694.22;;;6.41;34.16
45040;BME280;30778;53.574;7.770;2024-03-08T12:46:22;101690.19;;;6.93;34.32
45040;BME280;30778;53.574;7.770;2024-03-08T12:48:51;101677.03;;;6.25;33.86
45040;BME280;30778;53.574;7.770;2024-03-08T12:51:21;101668.72;;;6.79;33.76
45040;BME280;30778;53.574;7.770;2024-03-08T12:53:47;101664.38;;;6.79;34.12
45040;BME280;30778;53.574;7.770;2024-03-08T12:56:28;101662.72;;;6.72;33.74
45040;BME280;30778;53.574;7.770;2024-03-08T12:58:54;101663.41;;;6.88;33.55
45040;BME280;30778;53.574;7.770;2024-03-08T13:01:19;101660.41;;;6.46;33.78
45040;BME280;30778;53.574;7.770;2024-03-08T13:03:45;101656.16;;;6.40;34.61
45040;BME280;30778;53.574;7.770;2024-03-08T13:06:11;101648.06;;;6.68;33.86
45040;BME280;30778;53.574;7.770;2024-03-08T13:08:37;101645.72;;;7.18;32.71
45040;BME280;30778;53.574;7.770;2024-03-08T13:11:05;101641.81;;;7.48;32.65
45040;BME280;30778;53.574;7.770;2024-03-08T13:13:30;101640.16;;;6.77;33.20